Philadelphia, PA (19114)

12:24 PM EDT on October 17, 2019 (GMT -0400)
East Torresdale | | Change Station
Active Advisory: Wind Advisory

Elev 79 ft 40.05 °N, 75.00 °W | Updated 7 seconds ago

Mostly Cloudy
Mostly Cloudy
59.5 °F
Feels Like 59.5 °F
N
8
Wind Variable Wind from NNE
Gusts 15.0 mph

Today
High -- | Low -- °F
--% Chance of Precip.
Yesterday
High -- | Low -- °F
Precip. -- in
Pressure 29.46 in
Visibility 10.0 miles
Clouds Mostly Cloudy 4600 ft
Dew Point 43 °F
Humidity 54%
Rainfall 0.00 in
Snow Depth Not available.
7:12 AM 6:17 PM
Waning Gibbous, 86% visible
METAR KPNE 171554Z 28025G36KT 10SM BKN046 16/03 A2946 RMK AO2 PK WND 26037/1526 SLP975 T01560033
Pressure 29.46 in
Visibility 10.0 miles
Clouds Mostly Cloudy 4600 ft
Dew Point 43 °F
Humidity 54%
Rainfall 0.00 in
Snow Depth Not available.
7:12 AM 6:17 PM
Waning Gibbous, 86% visible
METAR KPNE 171554Z 28025G36KT 10SM BKN046 16/03 A2946 RMK AO2 PK WND 26037/1526 SLP975 T01560033

Get Your Daily Forecast Email!

Thanks for signing up!

Be on the lookout for a verification email in your inbox.

You'll start receiving severe weather alerts in your inbox..

×

10-Day Weather Forecast

Almanac

Astronomy

Oct. 17, 2019 Rise Set
Actual Time
Civil Twilight
Nautical Twilight
Astronomical Twilight
Moon
Length of Visible Light
Length of Day
Tomorrow will be .
, % of the Moon is Illuminated

Today's Extremes

State Highs State Lows

Community

WunderPhotos

Category 6

Welcome to Category 6. This is the collective home for Weather Underground's featured writeups by Dr. Jeff Masters (right), Bob Henson (left), Chris Burt, and other regular contributors.

Nearby

Air Quality

  Air Quality AQ Index Pollutant
Not available.

Snow Depth

Station Depth Elevation

Earthquake Activity

City Distance Mag. Time & Date
Minimum magnitude displayed is 2.5.

Coastal Water Temperatures

Place Temperature

Stations

Nearby Weather Stations

Station Location Temp. Windchill Dew Point Humidity Wind Precip. Elev Updated Type
                   

Watches & Warnings

Wind Advisory
Issued: 5:58 AM EDT Oct. 17, 2019 – National Weather Service

... Wind Advisory remains in effect until 6 PM EDT this evening...

* what... west winds 20 to 30 mph with gusts up to 50 mph.

* Where... portions of central, northern, northwest and southern
New Jersey, east Central, Northeast and southeast Pennsylvania,
northeast Maryland and northern Delaware.

* When... until 6 PM EDT Thursday.

* Impacts... gusty winds could blow around unsecured objects. Tree
limbs could be blown down and a few power outages may result.

Precautionary/preparedness actions...

Use extra caution when driving, especially if operating a high
profile vehicle. Secure outdoor objects.